createdAt,value
2022-10-19T00:01:09.703Z,9.50
2022-10-19T00:03:37.913Z,8.17
2022-10-19T00:06:15.397Z,9.73
2022-10-19T00:08:43.796Z,11.17
2022-10-19T00:11:12.329Z,6.60
2022-10-19T00:13:42.660Z,18.60
2022-10-19T00:16:13.719Z,12.10
2022-10-19T00:18:43.357Z,11.93
2022-10-19T00:21:13.448Z,11.90
2022-10-19T00:23:41.632Z,10.87
2022-10-19T00:26:10.266Z,14.70
2022-10-19T00:28:38.322Z,17.80
2022-10-19T00:31:10.963Z,11.80
2022-10-19T00:33:40.512Z,15.60
2022-10-19T00:36:16.860Z,16.40
2022-10-19T00:38:46.998Z,15.67
2022-10-19T00:41:15.954Z,11.37
2022-10-19T00:43:56.892Z,18.60
2022-10-19T00:46:25.613Z,16.33
2022-10-19T00:49:00.292Z,16.47
2022-10-19T00:51:30.398Z,12.70
2022-10-19T00:53:58.835Z,18.03
2022-10-19T00:56:26.854Z,24.07
2022-10-19T00:58:54.733Z,19.47
2022-10-19T01:01:25.380Z,24.90
2022-10-19T01:03:54.614Z,18.67
2022-10-19T01:06:24.277Z,20.80
2022-10-19T01:08:52.108Z,30.87
2022-10-19T01:11:35.899Z,12.20
2022-10-19T01:14:15.189Z,19.47
2022-10-19T01:16:51.794Z,16.57
2022-10-19T01:19:48.308Z,13.87
2022-10-19T01:22:29.841Z,16.27
2022-10-19T01:25:06.561Z,15.27
2022-10-19T01:27:49.893Z,14.20
2022-10-19T01:30:28.609Z,15.63
2022-10-19T01:33:09.355Z,19.00
2022-10-19T01:35:43.471Z,21.03
2022-10-19T01:38:26.266Z,19.77
2022-10-19T01:41:00.490Z,14.17
2022-10-19T01:43:38.521Z,21.63
2022-10-19T01:46:12.874Z,9.83
2022-10-19T01:48:44.123Z,13.03
2022-10-19T01:51:17.821Z,14.23
2022-10-19T01:53:51.302Z,16.77
2022-10-19T01:56:22.936Z,16.93
2022-10-19T01:58:53.323Z,16.33
2022-10-19T02:01:26.839Z,13.67
2022-10-19T02:03:54.975Z,14.77
2022-10-19T02:06:23.556Z,19.43
2022-10-19T02:08:53.555Z,28.30
2022-10-19T02:11:23.429Z,19.33
2022-10-19T02:13:55.582Z,18.20
2022-10-19T02:16:28.343Z,16.80
2022-10-19T02:18:57.031Z,19.17
2022-10-19T02:21:24.917Z,18.20
2022-10-19T02:23:54.258Z,20.93
2022-10-19T02:26:23.173Z,22.40
2022-10-19T02:28:51.755Z,17.03
2022-10-19T02:31:22.166Z,19.30
2022-10-19T02:33:51.560Z,19.77
2022-10-19T02:36:19.899Z,27.47
2022-10-19T02:38:47.785Z,21.17
2022-10-19T02:41:19.090Z,16.23
2022-10-19T02:44:00.263Z,23.13
2022-10-19T02:46:32.999Z,25.33
2022-10-19T02:49:04.722Z,18.53
2022-10-19T02:51:37.757Z,22.97
2022-10-19T02:54:07.982Z,16.60
2022-10-19T02:56:36.615Z,16.23
2022-10-19T02:59:04.862Z,27.30
2022-10-19T03:01:32.692Z,16.13
2022-10-19T03:04:01.800Z,20.57
2022-10-19T03:06:29.571Z,22.07
2022-10-19T03:08:57.334Z,23.50
2022-10-19T03:11:25.256Z,27.27
2022-10-19T03:13:53.074Z,23.10
2022-10-19T03:16:21.032Z,23.83
2022-10-19T03:18:49.412Z,22.13
2022-10-19T03:21:21.202Z,27.80
2022-10-19T03:23:48.948Z,21.47
2022-10-19T03:26:18.134Z,24.50
2022-10-19T03:28:46.116Z,28.57
2022-10-19T03:31:13.970Z,17.70
2022-10-19T03:33:41.753Z,22.60
2022-10-19T03:36:23.762Z,31.00
2022-10-19T03:38:52.592Z,21.43
2022-10-19T03:41:20.925Z,27.27
2022-10-19T03:43:49.165Z,27.30
2022-10-19T03:46:19.635Z,25.23
2022-10-19T03:48:48.030Z,22.00
2022-10-19T03:51:18.943Z,22.00
2022-10-19T03:53:54.123Z,30.90
2022-10-19T03:56:23.744Z,24.10
2022-10-19T03:58:52.695Z,21.60
2022-10-19T04:01:22.674Z,23.50
2022-10-19T04:03:54.613Z,25.00
2022-10-19T04:06:26.309Z,20.53
2022-10-19T04:08:59.305Z,22.13
2022-10-19T04:11:29.356Z,23.17
2022-10-19T04:13:58.636Z,23.00
2022-10-19T04:16:28.937Z,23.70
2022-10-19T04:19:00.605Z,24.37
2022-10-19T04:21:30.828Z,23.80
2022-10-19T04:24:04.708Z,24.17
2022-10-19T04:26:33.317Z,25.43
2022-10-19T04:29:03.550Z,26.07
2022-10-19T04:31:31.336Z,23.67
2022-10-19T04:33:59.222Z,29.53
2022-10-19T04:36:27.256Z,25.60
2022-10-19T04:38:55.209Z,20.80
2022-10-19T04:41:24.786Z,27.00
2022-10-19T04:43:57.796Z,16.37
2022-10-19T04:46:27.180Z,20.83
2022-10-19T04:48:55.087Z,23.93
2022-10-19T04:51:24.055Z,37.43
2022-10-19T04:53:53.408Z,17.97
2022-10-19T04:56:26.334Z,27.90
2022-10-19T04:58:56.388Z,24.10
2022-10-19T05:01:28.820Z,23.10
2022-10-19T05:06:32.050Z,20.47
2022-10-19T05:09:00.165Z,24.43
2022-10-19T05:11:29.437Z,26.50
2022-10-19T05:13:58.174Z,31.03
2022-10-19T05:16:26.304Z,25.33
2022-10-19T05:18:58.553Z,22.90
2022-10-19T05:21:27.607Z,23.90
2022-10-19T05:23:58.390Z,16.17
2022-10-19T05:26:29.659Z,18.83
2022-10-19T05:29:01.773Z,21.27
2022-10-19T05:31:32.997Z,22.13
2022-10-19T05:34:03.809Z,21.27
2022-10-19T05:36:34.685Z,17.20
2022-10-19T05:39:04.866Z,16.60
2022-10-19T05:41:32.868Z,17.20
2022-10-19T05:44:03.829Z,22.77
2022-10-19T05:46:33.571Z,22.90
2022-10-19T05:49:03.462Z,20.97
2022-10-19T05:51:31.425Z,20.77
2022-10-19T05:53:59.219Z,17.33
2022-10-19T05:56:28.931Z,15.70
2022-10-19T05:58:57.258Z,24.13
2022-10-19T06:01:28.080Z,14.20
2022-10-19T06:03:57.527Z,17.83
2022-10-19T06:06:26.645Z,12.20
2022-10-19T06:08:56.220Z,14.93
2022-10-19T06:11:26.764Z,15.97
2022-10-19T06:13:56.253Z,12.60
2022-10-19T06:16:27.316Z,16.80
2022-10-19T06:18:56.458Z,17.70
2022-10-19T06:21:26.269Z,13.63
2022-10-19T06:23:55.634Z,11.10
2022-10-19T06:26:24.060Z,18.97
2022-10-19T06:28:52.340Z,13.03
2022-10-19T06:31:20.065Z,12.60
2022-10-19T06:33:49.749Z,12.87
2022-10-19T06:36:20.579Z,11.90
2022-10-19T06:38:53.090Z,12.40
2022-10-19T06:41:21.209Z,11.53
2022-10-19T06:43:52.260Z,16.47
2022-10-19T06:46:23.330Z,11.53
2022-10-19T06:48:53.876Z,7.80
2022-10-19T06:51:22.688Z,10.90
2022-10-19T06:53:52.851Z,10.47
2022-10-19T06:56:24.435Z,10.90
2022-10-19T06:58:52.641Z,11.13
2022-10-19T07:01:20.996Z,8.30
2022-10-19T07:03:48.738Z,7.80
2022-10-19T07:06:18.301Z,15.87
2022-10-19T07:08:46.226Z,19.70
2022-10-19T07:11:19.160Z,13.53
2022-10-19T07:13:47.163Z,13.13
2022-10-19T07:16:21.079Z,8.77
2022-10-19T07:18:53.716Z,14.70
2022-10-19T07:21:23.977Z,10.70
2022-10-19T07:23:51.947Z,11.77
2022-10-19T07:26:23.395Z,10.60
2022-10-19T07:28:52.081Z,13.00
2022-10-19T07:31:22.333Z,11.60
2022-10-19T07:33:53.703Z,10.17
2022-10-19T07:36:23.407Z,13.67
2022-10-19T07:38:51.636Z,23.90
2022-10-19T07:41:21.503Z,9.57
2022-10-19T07:43:50.387Z,11.77
2022-10-19T07:46:19.925Z,15.90
2022-10-19T07:48:48.457Z,15.50
2022-10-19T07:51:17.895Z,12.33
2022-10-19T07:53:47.594Z,12.80
2022-10-19T07:56:17.403Z,17.23
2022-10-19T07:58:45.732Z,12.67
2022-10-19T08:01:17.889Z,11.53
2022-10-19T08:06:35.074Z,11.53
2022-10-19T08:09:05.384Z,10.00
2022-10-19T08:11:34.854Z,13.60
2022-10-19T08:14:05.267Z,13.33
2022-10-19T08:16:37.231Z,9.63
2022-10-19T08:19:08.118Z,10.87
2022-10-19T08:21:37.411Z,13.50
2022-10-19T08:24:07.948Z,16.83
2022-10-19T08:26:38.058Z,10.70
2022-10-19T08:29:07.926Z,19.20
2022-10-19T08:31:36.110Z,14.20
2022-10-19T08:34:04.113Z,16.90
2022-10-19T08:36:32.652Z,19.07
2022-10-19T08:39:00.514Z,12.80
2022-10-19T08:41:36.443Z,10.33
2022-10-19T08:44:25.004Z,12.77
2022-10-19T08:47:02.708Z,9.10
2022-10-19T08:49:32.912Z,9.20
2022-10-19T08:52:03.791Z,8.33
2022-10-19T08:54:38.881Z,9.77
2022-10-19T08:57:16.815Z,7.70
2022-10-19T08:59:54.413Z,13.00
2022-10-19T09:02:40.208Z,10.40
2022-10-19T09:05:17.304Z,13.57
2022-10-19T09:07:47.520Z,14.60
2022-10-19T09:10:21.607Z,9.97
2022-10-19T09:12:58.655Z,10.30
2022-10-19T09:15:29.946Z,9.80
2022-10-19T09:17:58.003Z,11.93
2022-10-19T09:20:35.597Z,13.23
2022-10-19T09:23:16.682Z,17.90
2022-10-19T09:25:44.613Z,11.87
2022-10-19T09:28:31.467Z,7.63
2022-10-19T09:31:11.555Z,11.50
2022-10-19T09:33:40.746Z,9.90
2022-10-19T09:36:15.034Z,9.83
2022-10-19T09:38:51.313Z,12.00
2022-10-19T09:41:23.670Z,8.47
2022-10-19T09:43:54.850Z,10.33
2022-10-19T09:46:33.513Z,10.50
2022-10-19T09:49:06.881Z,10.00
2022-10-19T09:51:50.232Z,11.10
2022-10-19T09:54:35.346Z,8.67
2022-10-19T09:57:04.821Z,7.47
2022-10-19T09:59:37.901Z,7.23
2022-10-19T10:02:18.660Z,13.57
2022-10-19T10:04:48.411Z,8.53
2022-10-19T10:07:19.653Z,11.23
2022-10-19T10:09:49.833Z,8.80
2022-10-19T10:12:17.808Z,15.70
2022-10-19T10:14:47.085Z,8.07
2022-10-19T10:17:18.228Z,6.10
2022-10-19T10:20:05.023Z,8.40
2022-10-19T10:22:36.046Z,10.80
2022-10-19T10:25:13.947Z,11.23
2022-10-19T10:27:42.611Z,13.87
2022-10-19T10:30:19.208Z,5.37
2022-10-19T10:32:51.161Z,9.43
2022-10-19T10:35:24.194Z,9.23
2022-10-19T10:37:53.203Z,9.77
2022-10-19T10:40:24.340Z,14.70
2022-10-19T10:42:54.770Z,9.33
2022-10-19T10:45:30.420Z,6.67
2022-10-19T10:48:16.508Z,9.10
2022-10-19T10:50:45.797Z,10.50
2022-10-19T10:53:46.414Z,8.90
2022-10-19T10:56:25.446Z,14.30
2022-10-19T10:58:59.121Z,8.00
2022-10-19T11:01:33.188Z,8.20
2022-10-19T11:04:06.944Z,8.70
2022-10-19T11:06:44.448Z,4.87
2022-10-19T11:09:22.933Z,10.63
2022-10-19T11:11:55.907Z,10.30
2022-10-19T11:14:31.527Z,9.20
2022-10-19T11:17:07.915Z,6.37
2022-10-19T11:19:38.846Z,8.90
2022-10-19T11:22:22.419Z,14.47
2022-10-19T11:25:03.186Z,5.20
2022-10-19T11:27:44.519Z,10.90
2022-10-19T11:30:15.068Z,8.83
2022-10-19T11:32:59.022Z,9.00
2022-10-19T11:35:41.534Z,7.13
2022-10-19T11:38:30.087Z,7.67
2022-10-19T11:41:23.609Z,7.50
2022-10-19T11:44:06.232Z,8.80
2022-10-19T11:46:43.623Z,9.13
2022-10-19T11:49:29.749Z,5.03
2022-10-19T11:52:03.469Z,9.43
2022-10-19T11:54:44.805Z,9.37
2022-10-19T11:57:17.461Z,13.53
2022-10-19T12:00:13.648Z,6.33
2022-10-19T12:03:16.760Z,7.50
2022-10-19T12:05:57.353Z,7.03
2022-10-19T12:08:41.884Z,7.57
2022-10-19T12:11:27.500Z,6.50
2022-10-19T12:14:00.994Z,4.00
2022-10-19T12:16:39.612Z,11.20
2022-10-19T12:19:14.790Z,4.63
2022-10-19T12:21:46.061Z,4.83
2022-10-19T12:24:17.409Z,9.60
2022-10-19T12:26:46.782Z,5.07
2022-10-19T12:29:19.050Z,4.97
2022-10-19T12:31:48.055Z,6.83
2022-10-19T12:34:27.995Z,7.70
2022-10-19T12:37:04.248Z,8.60
2022-10-19T12:39:40.016Z,7.90
2022-10-19T12:42:18.360Z,5.23
2022-10-19T12:45:07.460Z,4.10
2022-10-19T12:47:36.715Z,3.37
2022-10-19T12:50:06.133Z,4.20
2022-10-19T12:52:42.695Z,7.83
2022-10-19T12:55:26.374Z,6.53
2022-10-19T12:58:03.006Z,9.50
2022-10-19T13:00:35.095Z,9.53
2022-10-19T13:03:07.348Z,5.40
2022-10-19T13:05:36.912Z,8.43
2022-10-19T13:08:12.069Z,6.27
2022-10-19T13:10:43.132Z,5.30
2022-10-19T13:13:44.803Z,5.40
2022-10-19T13:16:43.027Z,6.63
2022-10-19T13:19:22.922Z,4.83
2022-10-19T13:22:14.133Z,4.63
2022-10-19T13:24:44.627Z,8.00
2022-10-19T13:27:39.315Z,6.50
2022-10-19T13:31:04.842Z,4.00
2022-10-19T13:33:51.069Z,3.20
2022-10-19T13:36:20.930Z,9.27
2022-10-19T13:39:08.666Z,3.80
2022-10-19T13:41:51.491Z,3.30
2022-10-19T13:44:29.352Z,4.83
2022-10-19T13:47:32.188Z,5.40
2022-10-19T13:50:23.341Z,6.20
2022-10-19T13:53:26.240Z,5.90
2022-10-19T13:56:21.791Z,4.10
2022-10-19T13:59:32.926Z,3.70
2022-10-19T14:02:29.558Z,4.60
2022-10-19T14:05:13.004Z,6.47
2022-10-19T14:07:48.767Z,5.83
2022-10-19T14:10:19.183Z,7.13
2022-10-19T14:12:48.786Z,4.83
2022-10-19T14:15:27.713Z,4.90
2022-10-19T14:18:01.294Z,4.37
2022-10-19T14:20:35.484Z,8.57
2022-10-19T14:23:26.753Z,7.40
2022-10-19T14:25:59.044Z,8.50
2022-10-19T14:28:30.110Z,10.43
2022-10-19T14:31:01.775Z,4.80
2022-10-19T14:33:35.136Z,4.60
2022-10-19T14:36:03.886Z,5.43
2022-10-19T14:38:36.208Z,11.23
2022-10-19T14:41:05.416Z,4.37
2022-10-19T14:43:35.892Z,4.57
2022-10-19T14:46:15.327Z,3.63
2022-10-19T14:48:46.741Z,5.33
2022-10-19T14:51:29.501Z,5.53
2022-10-19T14:54:04.380Z,3.87
2022-10-19T14:56:35.558Z,4.90
2022-10-19T14:59:07.583Z,4.63
2022-10-19T15:01:36.661Z,4.10
2022-10-19T15:04:06.100Z,9.57
2022-10-19T15:06:42.211Z,9.00
2022-10-19T15:09:36.886Z,15.63
2022-10-19T15:12:17.815Z,6.13
2022-10-19T15:14:47.124Z,8.30
2022-10-19T15:17:29.139Z,7.43
2022-10-19T15:20:01.127Z,4.97
2022-10-19T15:22:41.270Z,8.03
2022-10-19T15:25:35.354Z,5.67
2022-10-19T15:28:36.056Z,5.70
2022-10-19T15:31:13.980Z,6.30
2022-10-19T15:33:46.744Z,6.30
2022-10-19T15:36:18.308Z,6.43
2022-10-19T15:38:48.174Z,13.90
2022-10-19T15:41:22.040Z,8.30
2022-10-19T15:43:52.323Z,6.63
2022-10-19T15:46:32.015Z,12.53
2022-10-19T15:49:04.399Z,10.70
2022-10-19T15:51:49.301Z,6.60
2022-10-19T15:54:19.090Z,6.73
2022-10-19T15:56:48.863Z,9.50
2022-10-19T15:59:19.499Z,5.50
2022-10-19T16:01:52.591Z,7.93
2022-10-19T16:04:23.138Z,6.00
2022-10-19T16:06:52.379Z,6.73
2022-10-19T16:09:22.033Z,7.57
2022-10-19T16:11:56.578Z,7.00
2022-10-19T16:14:26.150Z,5.47
2022-10-19T16:16:54.040Z,5.80
2022-10-19T16:19:21.820Z,9.90
2022-10-19T16:21:50.516Z,6.43
2022-10-19T16:24:19.684Z,7.97
2022-10-19T16:26:47.574Z,6.00
2022-10-19T16:29:15.383Z,7.53
2022-10-19T16:31:43.208Z,9.87
2022-10-19T16:34:11.136Z,20.43
2022-10-19T16:36:38.975Z,6.30
2022-10-19T16:39:06.794Z,9.03
2022-10-19T16:41:36.037Z,12.23
2022-10-19T16:44:04.087Z,14.57
2022-10-19T16:46:32.056Z,7.40
2022-10-19T16:48:59.892Z,6.53
2022-10-19T16:51:35.897Z,6.77
2022-10-19T16:54:05.570Z,11.67
2022-10-19T16:56:34.458Z,7.13
2022-10-19T16:59:05.743Z,6.90
2022-10-19T17:01:35.723Z,8.80
2022-10-19T17:04:03.712Z,9.13
2022-10-19T17:06:32.074Z,10.23
2022-10-19T17:11:48.947Z,6.30
2022-10-19T17:14:17.993Z,9.23
2022-10-19T17:16:45.946Z,9.43
2022-10-19T17:19:13.908Z,6.37
2022-10-19T17:21:42.327Z,9.10
2022-10-19T17:24:18.651Z,8.87
2022-10-19T17:26:50.923Z,7.87
2022-10-19T17:29:20.809Z,8.43
2022-10-19T17:31:49.216Z,9.67
2022-10-19T17:34:19.612Z,9.60
2022-10-19T17:36:48.032Z,9.23
2022-10-19T17:39:18.031Z,8.53
2022-10-19T17:41:46.573Z,16.43
2022-10-19T17:44:14.848Z,8.80
2022-10-19T17:46:44.736Z,7.97
2022-10-19T17:49:13.329Z,12.00
2022-10-19T17:51:41.529Z,7.87
2022-10-19T17:54:13.185Z,10.50
2022-10-19T17:56:44.786Z,13.20
2022-10-19T17:59:13.180Z,14.73
2022-10-19T18:01:41.099Z,12.40
2022-10-19T18:04:10.216Z,6.93
2022-10-19T18:06:38.949Z,10.70
2022-10-19T18:09:09.252Z,8.43
2022-10-19T18:11:40.660Z,9.13
2022-10-19T18:14:10.252Z,9.83
2022-10-19T18:16:40.084Z,6.67
2022-10-19T18:19:10.008Z,7.80
2022-10-19T18:21:43.366Z,9.80
2022-10-19T18:24:16.542Z,12.43
2022-10-19T18:26:44.635Z,9.03
2022-10-19T18:29:20.373Z,8.43
2022-10-19T18:31:51.563Z,15.80
2022-10-19T18:34:22.876Z,9.07
2022-10-19T18:36:51.454Z,15.10
2022-10-19T18:39:19.755Z,10.03
2022-10-19T18:41:49.191Z,23.20
2022-10-19T18:44:18.355Z,22.60
2022-10-19T18:46:47.733Z,20.83
2022-10-19T18:49:16.280Z,12.70
2022-10-19T18:51:49.429Z,18.00
2022-10-19T18:54:20.267Z,28.27
2022-10-19T18:56:48.013Z,12.97
2022-10-19T18:59:18.564Z,41.47
2022-10-19T19:01:46.615Z,31.23
2022-10-19T19:04:14.894Z,11.63
2022-10-19T19:06:42.748Z,34.60
2022-10-19T19:09:13.091Z,27.17
2022-10-19T19:11:41.781Z,14.80
2022-10-19T19:14:13.637Z,10.90
2022-10-19T19:16:43.367Z,14.57
2022-10-19T19:19:15.397Z,14.70
2022-10-19T19:21:44.511Z,15.80
2022-10-19T19:24:16.562Z,20.83
2022-10-19T19:26:48.184Z,10.90
2022-10-19T19:29:16.211Z,29.10
2022-10-19T19:31:44.173Z,29.07
2022-10-19T19:34:12.079Z,20.33
2022-10-19T19:39:16.781Z,16.10
2022-10-19T19:41:44.640Z,11.90
2022-10-19T19:44:12.463Z,12.50
2022-10-19T19:46:40.428Z,8.63
2022-10-19T19:49:08.172Z,13.73
2022-10-19T19:51:36.167Z,8.50
2022-10-19T19:54:04.116Z,15.10
2022-10-19T19:56:33.761Z,11.20
2022-10-19T19:59:03.654Z,27.33
2022-10-19T20:01:32.862Z,55.13
2022-10-19T20:06:36.604Z,11.10
2022-10-19T20:09:05.710Z,15.27
2022-10-19T20:11:39.701Z,12.97
2022-10-19T20:14:09.796Z,63.60
2022-10-19T20:16:37.583Z,51.47
2022-10-19T20:19:08.303Z,26.40
2022-10-19T20:21:36.270Z,9.50
2022-10-19T20:24:05.939Z,10.00
2022-10-19T20:26:35.356Z,15.43
2022-10-19T20:29:03.532Z,11.60
2022-10-19T20:31:33.257Z,25.90
2022-10-19T20:34:01.162Z,48.63
2022-10-19T20:36:28.924Z,14.70
2022-10-19T20:38:58.157Z,12.40
2022-10-19T20:41:29.597Z,10.97
2022-10-19T20:43:58.896Z,11.60
2022-10-19T20:46:28.687Z,15.30
2022-10-19T20:48:57.889Z,14.60
2022-10-19T20:51:30.766Z,10.73
2022-10-19T20:54:18.397Z,11.57
2022-10-19T20:56:46.714Z,18.30
2022-10-19T20:59:18.119Z,11.67
2022-10-19T21:01:51.094Z,13.30
2022-10-19T21:04:19.177Z,14.07
2022-10-19T21:06:48.996Z,14.90
2022-10-19T21:09:18.583Z,11.63
2022-10-19T21:11:47.507Z,11.47
2022-10-19T21:14:23.835Z,12.23
2022-10-19T21:16:56.398Z,13.67
2022-10-19T21:19:25.892Z,8.90
2022-10-19T21:21:56.126Z,15.43
2022-10-19T21:24:25.941Z,13.50
2022-10-19T21:26:54.172Z,13.77
2022-10-19T21:29:23.294Z,12.50
2022-10-19T21:31:53.411Z,8.60
2022-10-19T21:34:23.571Z,9.37
2022-10-19T21:36:52.039Z,22.13
2022-10-19T21:39:20.432Z,12.67
2022-10-19T21:41:48.969Z,13.03
2022-10-19T21:44:18.508Z,12.37
2022-10-19T21:46:49.528Z,15.13
2022-10-19T21:49:17.950Z,13.83
2022-10-19T21:51:48.077Z,13.97
2022-10-19T21:54:18.632Z,12.20
2022-10-19T21:56:47.381Z,13.30
2022-10-19T21:59:16.037Z,11.43
2022-10-19T22:01:44.245Z,6.90
2022-10-19T22:04:15.566Z,12.70
2022-10-19T22:06:43.940Z,18.33
2022-10-19T22:09:14.984Z,8.47
2022-10-19T22:11:43.258Z,10.20
2022-10-19T22:14:12.402Z,16.40
2022-10-19T22:16:41.342Z,14.70
2022-10-19T22:19:09.952Z,39.07
2022-10-19T22:21:39.501Z,53.37
2022-10-19T22:24:10.172Z,16.93
2022-10-19T22:26:40.624Z,24.57
2022-10-19T22:29:08.861Z,10.50
2022-10-19T22:31:38.166Z,14.80
2022-10-19T22:34:09.139Z,8.87
2022-10-19T22:36:37.801Z,7.50
2022-10-19T22:39:07.975Z,10.80
2022-10-19T22:41:35.889Z,10.57
2022-10-19T22:44:06.054Z,15.53
2022-10-19T22:46:33.975Z,7.80
2022-10-19T22:49:01.827Z,11.57
2022-10-19T22:51:29.895Z,15.03
2022-10-19T22:53:57.624Z,10.60
2022-10-19T22:56:27.132Z,13.13
2022-10-19T22:58:59.060Z,12.53
2022-10-19T23:01:27.341Z,11.13
2022-10-19T23:03:55.579Z,7.23
2022-10-19T23:06:25.845Z,11.80
2022-10-19T23:08:54.733Z,14.30
2022-10-19T23:11:23.583Z,12.23
2022-10-19T23:13:52.733Z,8.30
2022-10-19T23:16:20.701Z,9.83
2022-10-19T23:18:48.581Z,11.47
2022-10-19T23:21:16.628Z,7.03
2022-10-19T23:23:44.771Z,14.67
2022-10-19T23:26:14.723Z,7.60
2022-10-19T23:28:44.839Z,8.60
2022-10-19T23:31:16.665Z,12.87
2022-10-19T23:33:45.350Z,13.27
2022-10-19T23:36:15.578Z,6.43
2022-10-19T23:38:44.115Z,11.03
2022-10-19T23:41:12.497Z,21.13
2022-10-19T23:43:40.818Z,18.80
2022-10-19T23:46:09.332Z,12.03
2022-10-19T23:48:39.800Z,14.60
2022-10-19T23:51:10.219Z,8.20
2022-10-19T23:53:41.280Z,7.17
2022-10-19T23:56:11.922Z,8.53
2022-10-19T23:58:39.853Z,10.60
